KAXS/AXS METAR and TAF weather

Enter ICAO airport designator
Station Type Date Time Source
KAXS METAR 2020/11/25 22:15 UTC NOAA

KAXS 252215Z AUTO 16006KT 10SM CLR 16/M05 A3003 RMK AO2 T01581054


Station Type Date Time Source
KAXS Decoded METAR 2020/11/25 22:15 UTC NOAA

Altus, Altus/Quartz Mountain Regional Airport, OK, United States (KAXS) 34-41-55N 099-20-17W
Nov 25, 2020 - 05:15 PM EST / 2020.11.25 2215 UTC
Wind: from the SSE (160 degrees) at 7 MPH (6 KT):0
Visibility: 10 mile(s):0
Sky conditions: clear
Temperature: 60.4 F (15.8 C)
Dew Point: 22.3 F (-5.4 C)
Relative Humidity: 22%
Pressure (altimeter): 30.03 in. Hg (1016 hPa)
ob: KAXS 252215Z AUTO 16006KT 10SM CLR 16/M05 A3003 RMK AO2 T01581054
cycle: 22

Station Type Date Time Source
KAXS TAF UTC NOAA

Error!

Example: see airport list